sensor_id;sensor_type;location;lat;lon;timestamp;P1;durP1;ratioP1;P2;durP2;ratioP2
3299;SDS011;1662;49.310;8.134;2023-03-23T00:01:12;3.80;;;3.70;;
3299;SDS011;1662;49.310;8.134;2023-03-23T00:03:39;3.80;;;3.70;;
3299;SDS011;1662;49.310;8.134;2023-03-23T00:06:06;3.80;;;3.70;;
3299;SDS011;1662;49.310;8.134;2023-03-23T00:08:39;4.03;;;3.93;;
3299;SDS011;1662;49.310;8.134;2023-03-23T00:11:14;3.47;;;3.37;;
3299;SDS011;1662;49.310;8.134;2023-03-23T00:13:47;3.70;;;3.60;;
3299;SDS011;1662;49.310;8.134;2023-03-23T00:16:18;4.00;;;3.80;;
3299;SDS011;1662;49.310;8.134;2023-03-23T00:18:53;6.50;;;4.30;;
3299;SDS011;1662;49.310;8.134;2023-03-23T00:21:24;3.40;;;3.30;;
3299;SDS011;1662;49.310;8.134;2023-03-23T00:23:58;3.30;;;3.20;;
3299;SDS011;1662;49.310;8.134;2023-03-23T00:26:36;3.87;;;3.67;;
3299;SDS011;1662;49.310;8.134;2023-03-23T00:29:06;4.17;;;3.97;;
3299;SDS011;1662;49.310;8.134;2023-03-23T00:31:38;3.60;;;3.50;;
3299;SDS011;1662;49.310;8.134;2023-03-23T00:34:04;3.97;;;3.67;;
3299;SDS011;1662;49.310;8.134;2023-03-23T00:36:31;3.87;;;3.77;;
3299;SDS011;1662;49.310;8.134;2023-03-23T00:38:59;3.73;;;3.53;;
3299;SDS011;1662;49.310;8.134;2023-03-23T00:41:26;3.47;;;3.37;;
3299;SDS011;1662;49.310;8.134;2023-03-23T00:43:56;3.37;;;3.27;;
3299;SDS011;1662;49.310;8.134;2023-03-23T00:46:25;3.23;;;3.13;;
3299;SDS011;1662;49.310;8.134;2023-03-23T00:48:53;3.33;;;3.23;;
3299;SDS011;1662;49.310;8.134;2023-03-23T00:51:19;3.17;;;3.07;;
3299;SDS011;1662;49.310;8.134;2023-03-23T00:53:46;3.30;;;3.20;;
3299;SDS011;1662;49.310;8.134;2023-03-23T00:56:12;3.40;;;3.30;;
3299;SDS011;1662;49.310;8.134;2023-03-23T00:58:38;3.20;;;3.10;;
3299;SDS011;1662;49.310;8.134;2023-03-23T01:01:04;3.50;;;3.40;;
3299;SDS011;1662;49.310;8.134;2023-03-23T01:03:30;3.97;;;3.67;;
3299;SDS011;1662;49.310;8.134;2023-03-23T01:05:56;3.70;;;3.60;;
3299;SDS011;1662;49.310;8.134;2023-03-23T01:08:22;4.13;;;3.93;;
3299;SDS011;1662;49.310;8.134;2023-03-23T01:10:49;3.70;;;3.50;;
3299;SDS011;1662;49.310;8.134;2023-03-23T01:13:16;3.33;;;3.23;;
3299;SDS011;1662;49.310;8.134;2023-03-23T01:15:42;3.70;;;3.60;;
3299;SDS011;1662;49.310;8.134;2023-03-23T01:18:08;3.77;;;3.67;;
3299;SDS011;1662;49.310;8.134;2023-03-23T01:20:35;3.50;;;3.40;;
3299;SDS011;1662;49.310;8.134;2023-03-23T01:23:02;3.70;;;3.60;;
3299;SDS011;1662;49.310;8.134;2023-03-23T01:25:28;3.60;;;3.50;;
3299;SDS011;1662;49.310;8.134;2023-03-23T01:27:58;3.40;;;3.30;;
3299;SDS011;1662;49.310;8.134;2023-03-23T01:30:23;3.70;;;3.60;;
3299;SDS011;1662;49.310;8.134;2023-03-23T01:32:50;3.80;;;3.70;;
3299;SDS011;1662;49.310;8.134;2023-03-23T01:35:16;3.63;;;3.53;;
3299;SDS011;1662;49.310;8.134;2023-03-23T01:37:42;3.70;;;3.60;;
3299;SDS011;1662;49.310;8.134;2023-03-23T01:40:08;3.70;;;3.60;;
3299;SDS011;1662;49.310;8.134;2023-03-23T01:42:35;5.13;;;4.10;;
3299;SDS011;1662;49.310;8.134;2023-03-23T01:53:37;3.97;;;3.87;;
3299;SDS011;1662;49.310;8.134;2023-03-23T01:56:16;3.50;;;3.40;;
3299;SDS011;1662;49.310;8.134;2023-03-23T01:58:45;4.07;;;3.77;;
3299;SDS011;1662;49.310;8.134;2023-03-23T02:01:12;3.73;;;3.53;;
3299;SDS011;1662;49.310;8.134;2023-03-23T02:03:40;3.73;;;3.63;;
3299;SDS011;1662;49.310;8.134;2023-03-23T02:06:09;3.67;;;3.57;;
3299;SDS011;1662;49.310;8.134;2023-03-23T02:08:35;3.50;;;3.40;;
3299;SDS011;1662;49.310;8.134;2023-03-23T02:11:01;3.33;;;3.23;;
3299;SDS011;1662;49.310;8.134;2023-03-23T02:13:36;3.57;;;3.40;;
3299;SDS011;1662;49.310;8.134;2023-03-23T02:16:15;3.20;;;3.10;;
3299;SDS011;1662;49.310;8.134;2023-03-23T02:19:04;3.53;;;3.43;;
3299;SDS011;1662;49.310;8.134;2023-03-23T02:27:26;3.17;;;3.07;;
3299;SDS011;1662;49.310;8.134;2023-03-23T02:38:26;3.30;;;3.10;;
3299;SDS011;1662;49.310;8.134;2023-03-23T02:40:59;3.50;;;3.27;;
3299;SDS011;1662;49.310;8.134;2023-03-23T02:43:29;2.93;;;2.83;;
3299;SDS011;1662;49.310;8.134;2023-03-23T02:46:01;4.23;;;3.10;;
3299;SDS011;1662;49.310;8.134;2023-03-23T02:48:33;5.73;;;3.33;;
3299;SDS011;1662;49.310;8.134;2023-03-23T02:51:00;3.10;;;2.90;;
3299;SDS011;1662;49.310;8.134;2023-03-23T02:53:30;3.30;;;3.10;;
3299;SDS011;1662;49.310;8.134;2023-03-23T02:56:02;3.60;;;3.30;;
3299;SDS011;1662;49.310;8.134;2023-03-23T02:58:32;3.00;;;2.90;;
3299;SDS011;1662;49.310;8.134;2023-03-23T03:00:58;3.07;;;2.97;;
3299;SDS011;1662;49.310;8.134;2023-03-23T03:03:26;2.90;;;2.80;;
3299;SDS011;1662;49.310;8.134;2023-03-23T03:06:01;2.73;;;2.60;;
3299;SDS011;1662;49.310;8.134;2023-03-23T03:08:42;3.00;;;2.90;;
3299;SDS011;1662;49.310;8.134;2023-03-23T03:11:16;3.30;;;2.60;;
3299;SDS011;1662;49.310;8.134;2023-03-23T03:13:52;2.60;;;2.50;;
3299;SDS011;1662;49.310;8.134;2023-03-23T03:19:18;3.10;;;2.80;;
3299;SDS011;1662;49.310;8.134;2023-03-23T03:21:56;2.93;;;2.80;;
3299;SDS011;1662;49.310;8.134;2023-03-23T03:24:24;3.83;;;3.53;;
3299;SDS011;1662;49.310;8.134;2023-03-23T03:26:54;3.10;;;2.90;;
3299;SDS011;1662;49.310;8.134;2023-03-23T03:29:29;3.43;;;3.23;;
3299;SDS011;1662;49.310;8.134;2023-03-23T03:31:59;3.10;;;2.97;;
3299;SDS011;1662;49.310;8.134;2023-03-23T03:34:29;3.07;;;2.87;;
3299;SDS011;1662;49.310;8.134;2023-03-23T03:36:57;2.93;;;2.83;;
3299;SDS011;1662;49.310;8.134;2023-03-23T03:39:24;3.00;;;2.90;;
3299;SDS011;1662;49.310;8.134;2023-03-23T03:41:52;4.70;;;2.73;;
3299;SDS011;1662;49.310;8.134;2023-03-23T03:44:17;3.33;;;3.20;;
3299;SDS011;1662;49.310;8.134;2023-03-23T03:46:43;3.27;;;3.13;;
3299;SDS011;1662;49.310;8.134;2023-03-23T03:49:11;3.13;;;3.03;;
3299;SDS011;1662;49.310;8.134;2023-03-23T03:51:40;3.93;;;3.20;;
3299;SDS011;1662;49.310;8.134;2023-03-23T03:54:09;3.63;;;3.20;;
3299;SDS011;1662;49.310;8.134;2023-03-23T03:56:35;3.17;;;2.97;;
3299;SDS011;1662;49.310;8.134;2023-03-23T03:59:05;3.37;;;3.17;;
3299;SDS011;1662;49.310;8.134;2023-03-23T04:01:33;2.90;;;2.70;;
3299;SDS011;1662;49.310;8.134;2023-03-23T04:03:59;3.50;;;3.20;;
3299;SDS011;1662;49.310;8.134;2023-03-23T04:06:25;3.60;;;3.50;;
3299;SDS011;1662;49.310;8.134;2023-03-23T04:08:52;3.27;;;3.17;;
3299;SDS011;1662;49.310;8.134;2023-03-23T04:11:20;3.93;;;3.63;;
3299;SDS011;1662;49.310;8.134;2023-03-23T04:13:46;3.17;;;3.07;;
3299;SDS011;1662;49.310;8.134;2023-03-23T04:16:11;3.33;;;3.13;;
3299;SDS011;1662;49.310;8.134;2023-03-23T04:18:37;3.40;;;3.20;;
3299;SDS011;1662;49.310;8.134;2023-03-23T04:21:03;2.63;;;2.50;;
3299;SDS011;1662;49.310;8.134;2023-03-23T04:23:32;3.20;;;3.00;;
3299;SDS011;1662;49.310;8.134;2023-03-23T04:26:00;3.30;;;2.93;;
3299;SDS011;1662;49.310;8.134;2023-03-23T04:28:26;5.13;;;3.10;;
3299;SDS011;1662;49.310;8.134;2023-03-23T04:30:53;3.43;;;3.00;;
3299;SDS011;1662;49.310;8.134;2023-03-23T04:33:19;4.27;;;3.03;;
3299;SDS011;1662;49.310;8.134;2023-03-23T04:35:50;2.40;;;2.20;;
3299;SDS011;1662;49.310;8.134;2023-03-23T04:38:18;2.93;;;2.73;;
3299;SDS011;1662;49.310;8.134;2023-03-23T04:40:48;2.43;;;2.33;;
3299;SDS011;1662;49.310;8.134;2023-03-23T04:43:21;2.80;;;2.70;;
3299;SDS011;1662;49.310;8.134;2023-03-23T04:45:53;3.47;;;2.50;;
3299;SDS011;1662;49.310;8.134;2023-03-23T04:48:23;2.57;;;2.47;;
3299;SDS011;1662;49.310;8.134;2023-03-23T04:50:51;2.50;;;2.40;;
3299;SDS011;1662;49.310;8.134;2023-03-23T04:53:17;2.50;;;2.40;;
3299;SDS011;1662;49.310;8.134;2023-03-23T04:55:43;2.50;;;2.40;;
3299;SDS011;1662;49.310;8.134;2023-03-23T04:58:09;2.50;;;2.30;;
3299;SDS011;1662;49.310;8.134;2023-03-23T05:00:37;2.40;;;2.30;;
3299;SDS011;1662;49.310;8.134;2023-03-23T05:03:03;2.60;;;2.27;;
3299;SDS011;1662;49.310;8.134;2023-03-23T05:05:29;2.40;;;2.30;;
3299;SDS011;1662;49.310;8.134;2023-03-23T05:07:55;3.10;;;2.50;;
3299;SDS011;1662;49.310;8.134;2023-03-23T05:10:22;2.83;;;2.73;;
3299;SDS011;1662;49.310;8.134;2023-03-23T05:12:48;2.30;;;2.20;;
3299;SDS011;1662;49.310;8.134;2023-03-23T05:15:14;2.63;;;2.43;;
3299;SDS011;1662;49.310;8.134;2023-03-23T05:17:41;2.00;;;1.90;;
3299;SDS011;1662;49.310;8.134;2023-03-23T05:20:12;2.13;;;2.10;;
3299;SDS011;1662;49.310;8.134;2023-03-23T05:22:40;2.50;;;2.40;;
3299;SDS011;1662;49.310;8.134;2023-03-23T05:25:07;2.90;;;2.70;;
3299;SDS011;1662;49.310;8.134;2023-03-23T05:27:36;2.13;;;2.03;;
3299;SDS011;1662;49.310;8.134;2023-03-23T05:30:05;2.70;;;2.57;;
3299;SDS011;1662;49.310;8.134;2023-03-23T05:32:31;2.83;;;2.73;;
3299;SDS011;1662;49.310;8.134;2023-03-23T05:35:00;2.40;;;2.20;;
3299;SDS011;1662;49.310;8.134;2023-03-23T05:37:28;2.13;;;2.03;;
3299;SDS011;1662;49.310;8.134;2023-03-23T05:39:57;1.80;;;1.80;;
3299;SDS011;1662;49.310;8.134;2023-03-23T05:42:30;3.20;;;3.00;;
3299;SDS011;1662;49.310;8.134;2023-03-23T05:44:56;2.30;;;2.20;;
3299;SDS011;1662;49.310;8.134;2023-03-23T05:47:22;3.20;;;3.10;;
3299;SDS011;1662;49.310;8.134;2023-03-23T05:49:48;2.97;;;2.77;;
3299;SDS011;1662;49.310;8.134;2023-03-23T05:52:13;2.87;;;2.77;;
3299;SDS011;1662;49.310;8.134;2023-03-23T05:54:39;3.00;;;2.47;;
3299;SDS011;1662;49.310;8.134;2023-03-23T05:57:06;2.87;;;2.63;;
3299;SDS011;1662;49.310;8.134;2023-03-23T05:59:33;4.80;;;2.00;;
3299;SDS011;1662;49.310;8.134;2023-03-23T06:01:59;2.20;;;2.10;;
3299;SDS011;1662;49.310;8.134;2023-03-23T06:04:25;2.80;;;2.60;;
3299;SDS011;1662;49.310;8.134;2023-03-23T06:06:52;2.50;;;2.30;;
3299;SDS011;1662;49.310;8.134;2023-03-23T06:09:18;2.50;;;2.40;;
3299;SDS011;1662;49.310;8.134;2023-03-23T06:11:44;2.63;;;2.50;;
3299;SDS011;1662;49.310;8.134;2023-03-23T06:14:10;2.13;;;2.03;;
3299;SDS011;1662;49.310;8.134;2023-03-23T06:16:36;2.10;;;2.00;;
3299;SDS011;1662;49.310;8.134;2023-03-23T06:19:02;2.30;;;2.20;;
3299;SDS011;1662;49.310;8.134;2023-03-23T06:21:29;2.90;;;2.67;;
3299;SDS011;1662;49.310;8.134;2023-03-23T06:23:55;1.90;;;1.80;;
3299;SDS011;1662;49.310;8.134;2023-03-23T06:26:21;2.60;;;2.50;;
3299;SDS011;1662;49.310;8.134;2023-03-23T06:28:53;2.37;;;2.17;;
3299;SDS011;1662;49.310;8.134;2023-03-23T06:31:19;2.10;;;2.00;;
3299;SDS011;1662;49.310;8.134;2023-03-23T06:33:45;1.87;;;1.80;;
3299;SDS011;1662;49.310;8.134;2023-03-23T06:36:12;2.53;;;2.40;;
3299;SDS011;1662;49.310;8.134;2023-03-23T06:38:38;2.27;;;2.17;;
3299;SDS011;1662;49.310;8.134;2023-03-23T06:41:03;2.23;;;2.13;;
3299;SDS011;1662;49.310;8.134;2023-03-23T06:43:34;1.83;;;1.73;;
3299;SDS011;1662;49.310;8.134;2023-03-23T06:46:04;1.83;;;1.77;;
3299;SDS011;1662;49.310;8.134;2023-03-23T06:48:30;1.73;;;1.63;;
3299;SDS011;1662;49.310;8.134;2023-03-23T06:50:57;1.80;;;1.70;;
3299;SDS011;1662;49.310;8.134;2023-03-23T06:53:22;1.90;;;1.80;;
3299;SDS011;1662;49.310;8.134;2023-03-23T06:55:50;1.70;;;1.70;;
3299;SDS011;1662;49.310;8.134;2023-03-23T06:58:16;1.87;;;1.77;;
3299;SDS011;1662;49.310;8.134;2023-03-23T07:00:42;2.03;;;1.93;;
3299;SDS011;1662;49.310;8.134;2023-03-23T07:03:07;2.37;;;2.00;;
3299;SDS011;1662;49.310;8.134;2023-03-23T07:05:33;1.80;;;1.70;;
3299;SDS011;1662;49.310;8.134;2023-03-23T07:08:00;1.90;;;1.80;;
3299;SDS011;1662;49.310;8.134;2023-03-23T07:10:27;1.87;;;1.77;;
3299;SDS011;1662;49.310;8.134;2023-03-23T07:12:53;1.97;;;1.87;;
3299;SDS011;1662;49.310;8.134;2023-03-23T07:15:19;1.80;;;1.70;;
3299;SDS011;1662;49.310;8.134;2023-03-23T07:17:44;1.63;;;1.63;;
3299;SDS011;1662;49.310;8.134;2023-03-23T07:20:11;1.83;;;1.73;;
3299;SDS011;1662;49.310;8.134;2023-03-23T07:22:37;1.73;;;1.67;;
3299;SDS011;1662;49.310;8.134;2023-03-23T07:25:03;2.10;;;2.00;;
3299;SDS011;1662;49.310;8.134;2023-03-23T07:27:30;2.17;;;2.00;;
3299;SDS011;1662;49.310;8.134;2023-03-23T07:29:55;1.97;;;1.87;;
3299;SDS011;1662;49.310;8.134;2023-03-23T07:32:22;1.83;;;1.73;;
3299;SDS011;1662;49.310;8.134;2023-03-23T07:34:49;2.10;;;2.00;;
3299;SDS011;1662;49.310;8.134;2023-03-23T07:37:14;1.87;;;1.77;;
3299;SDS011;1662;49.310;8.134;2023-03-23T07:39:40;2.30;;;2.20;;
3299;SDS011;1662;49.310;8.134;2023-03-23T07:42:07;2.27;;;2.13;;
3299;SDS011;1662;49.310;8.134;2023-03-23T07:44:33;2.60;;;2.40;;
3299;SDS011;1662;49.310;8.134;2023-03-23T07:46:59;1.90;;;1.80;;
3299;SDS011;1662;49.310;8.134;2023-03-23T07:49:24;2.37;;;1.90;;
3299;SDS011;1662;49.310;8.134;2023-03-23T07:51:51;2.50;;;2.20;;
3299;SDS011;1662;49.310;8.134;2023-03-23T07:54:17;3.20;;;2.20;;
3299;SDS011;1662;49.310;8.134;2023-03-23T07:56:43;1.90;;;1.80;;
3299;SDS011;1662;49.310;8.134;2023-03-23T07:59:10;2.57;;;2.27;;
3299;SDS011;1662;49.310;8.134;2023-03-23T08:01:36;3.27;;;1.77;;
3299;SDS011;1662;49.310;8.134;2023-03-23T08:04:02;2.17;;;2.07;;
3299;SDS011;1662;49.310;8.134;2023-03-23T08:06:27;2.40;;;2.30;;
3299;SDS011;1662;49.310;8.134;2023-03-23T08:08:53;2.20;;;2.10;;
3299;SDS011;1662;49.310;8.134;2023-03-23T08:11:20;2.40;;;2.30;;
3299;SDS011;1662;49.310;8.134;2023-03-23T08:13:46;2.03;;;1.93;;
3299;SDS011;1662;49.310;8.134;2023-03-23T08:16:12;2.90;;;1.90;;
3299;SDS011;1662;49.310;8.134;2023-03-23T08:18:38;3.33;;;1.90;;
3299;SDS011;1662;49.310;8.134;2023-03-23T08:21:05;2.30;;;2.20;;
3299;SDS011;1662;49.310;8.134;2023-03-23T08:23:34;4.13;;;2.40;;
3299;SDS011;1662;49.310;8.134;2023-03-23T08:26:01;2.40;;;2.30;;
3299;SDS011;1662;49.310;8.134;2023-03-23T08:28:31;2.60;;;2.43;;
3299;SDS011;1662;49.310;8.134;2023-03-23T08:30:57;2.33;;;2.23;;
3299;SDS011;1662;49.310;8.134;2023-03-23T08:33:22;2.07;;;1.97;;
3299;SDS011;1662;49.310;8.134;2023-03-23T08:35:57;2.50;;;2.30;;
3299;SDS011;1662;49.310;8.134;2023-03-23T08:38:24;2.07;;;1.97;;
3299;SDS011;1662;49.310;8.134;2023-03-23T08:40:50;2.20;;;2.00;;
3299;SDS011;1662;49.310;8.134;2023-03-23T08:43:16;2.20;;;2.10;;
3299;SDS011;1662;49.310;8.134;2023-03-23T08:45:43;1.83;;;1.73;;
3299;SDS011;1662;49.310;8.134;2023-03-23T08:48:08;2.70;;;2.50;;
3299;SDS011;1662;49.310;8.134;2023-03-23T08:50:38;3.37;;;2.50;;
3299;SDS011;1662;49.310;8.134;2023-03-23T08:53:06;2.93;;;2.20;;
3299;SDS011;1662;49.310;8.134;2023-03-23T08:55:32;2.90;;;2.60;;
3299;SDS011;1662;49.310;8.134;2023-03-23T08:57:57;2.53;;;2.37;;
3299;SDS011;1662;49.310;8.134;2023-03-23T09:00:23;2.17;;;2.07;;
3299;SDS011;1662;49.310;8.134;2023-03-23T09:02:51;3.00;;;2.80;;
3299;SDS011;1662;49.310;8.134;2023-03-23T09:05:22;4.23;;;3.93;;
3299;SDS011;1662;49.310;8.134;2023-03-23T09:07:50;2.83;;;2.50;;
3299;SDS011;1662;49.310;8.134;2023-03-23T09:10:17;2.70;;;2.20;;
3299;SDS011;1662;49.310;8.134;2023-03-23T09:12:43;1.80;;;1.70;;
3299;SDS011;1662;49.310;8.134;2023-03-23T09:15:12;2.83;;;2.63;;
3299;SDS011;1662;49.310;8.134;2023-03-23T09:17:42;2.37;;;2.20;;
3299;SDS011;1662;49.310;8.134;2023-03-23T09:20:10;2.30;;;2.20;;
3299;SDS011;1662;49.310;8.134;2023-03-23T09:22:38;2.43;;;2.30;;
3299;SDS011;1662;49.310;8.134;2023-03-23T09:25:06;2.10;;;2.00;;
3299;SDS011;1662;49.310;8.134;2023-03-23T09:27:34;2.37;;;2.17;;
3299;SDS011;1662;49.310;8.134;2023-03-23T09:30:05;1.63;;;1.63;;
3299;SDS011;1662;49.310;8.134;2023-03-23T09:32:35;2.03;;;1.93;;
3299;SDS011;1662;49.310;8.134;2023-03-23T09:35:02;3.63;;;2.07;;
3299;SDS011;1662;49.310;8.134;2023-03-23T09:37:32;2.00;;;1.90;;
3299;SDS011;1662;49.310;8.134;2023-03-23T09:40:00;2.40;;;2.20;;
3299;SDS011;1662;49.310;8.134;2023-03-23T09:45:00;2.50;;;2.40;;
3299;SDS011;1662;49.310;8.134;2023-03-23T09:53:13;2.30;;;2.10;;
3299;SDS011;1662;49.310;8.134;2023-03-23T09:55:48;2.30;;;2.20;;
3299;SDS011;1662;49.310;8.134;2023-03-23T10:01:05;2.30;;;2.20;;
3299;SDS011;1662;49.310;8.134;2023-03-23T10:03:36;2.10;;;2.00;;
3299;SDS011;1662;49.310;8.134;2023-03-23T10:06:04;2.37;;;2.23;;
3299;SDS011;1662;49.310;8.134;2023-03-23T10:08:33;1.90;;;1.80;;
3299;SDS011;1662;49.310;8.134;2023-03-23T10:11:03;2.27;;;2.07;;
3299;SDS011;1662;49.310;8.134;2023-03-23T10:16:31;1.90;;;1.80;;
3299;SDS011;1662;49.310;8.134;2023-03-23T10:21:37;3.00;;;2.20;;
3299;SDS011;1662;49.310;8.134;2023-03-23T10:24:09;1.70;;;1.60;;
3299;SDS011;1662;49.310;8.134;2023-03-23T10:26:45;1.83;;;1.77;;
3299;SDS011;1662;49.310;8.134;2023-03-23T10:29:17;2.20;;;2.10;;
3299;SDS011;1662;49.310;8.134;2023-03-23T10:31:53;1.83;;;1.80;;
3299;SDS011;1662;49.310;8.134;2023-03-23T10:37:10;1.53;;;1.53;;
3299;SDS011;1662;49.310;8.134;2023-03-23T10:39:59;1.60;;;1.60;;
3299;SDS011;1662;49.310;8.134;2023-03-23T10:42:32;1.57;;;1.57;;
3299;SDS011;1662;49.310;8.134;2023-03-23T10:45:11;1.67;;;1.67;;
3299;SDS011;1662;49.310;8.134;2023-03-23T10:47:57;1.70;;;1.60;;
3299;SDS011;1662;49.310;8.134;2023-03-23T10:50:45;1.70;;;1.60;;
3299;SDS011;1662;49.310;8.134;2023-03-23T10:53:21;1.57;;;1.57;;
3299;SDS011;1662;49.310;8.134;2023-03-23T10:55:53;1.80;;;1.70;;
3299;SDS011;1662;49.310;8.134;2023-03-23T10:58:30;2.83;;;2.60;;
3299;SDS011;1662;49.310;8.134;2023-03-23T11:01:01;1.40;;;1.40;;
3299;SDS011;1662;49.310;8.134;2023-03-23T11:05:59;1.73;;;1.63;;
3299;SDS011;1662;49.310;8.134;2023-03-23T11:09:03;1.43;;;1.43;;
3299;SDS011;1662;49.310;8.134;2023-03-23T11:11:30;1.73;;;1.67;;
3299;SDS011;1662;49.310;8.134;2023-03-23T11:14:01;1.80;;;1.70;;
3299;SDS011;1662;49.310;8.134;2023-03-23T11:16:54;1.77;;;1.67;;
3299;SDS011;1662;49.310;8.134;2023-03-23T11:19:29;1.80;;;1.70;;
3299;SDS011;1662;49.310;8.134;2023-03-23T11:24:41;1.80;;;1.70;;
3299;SDS011;1662;49.310;8.134;2023-03-23T11:27:09;1.50;;;1.50;;
3299;SDS011;1662;49.310;8.134;2023-03-23T11:29:58;1.73;;;1.63;;
3299;SDS011;1662;49.310;8.134;2023-03-23T11:32:26;1.87;;;1.60;;
3299;SDS011;1662;49.310;8.134;2023-03-23T11:35:00;1.43;;;1.43;;
3299;SDS011;1662;49.310;8.134;2023-03-23T11:37:40;1.80;;;1.70;;
3299;SDS011;1662;49.310;8.134;2023-03-23T11:42:42;1.67;;;1.67;;
3299;SDS011;1662;49.310;8.134;2023-03-23T11:45:18;2.10;;;2.00;;
3299;SDS011;1662;49.310;8.134;2023-03-23T11:50:29;1.60;;;1.50;;
3299;SDS011;1662;49.310;8.134;2023-03-23T11:58:16;1.70;;;1.70;;
3299;SDS011;1662;49.310;8.134;2023-03-23T12:01:27;1.67;;;1.67;;
3299;SDS011;1662;49.310;8.134;2023-03-23T12:12:11;1.97;;;1.90;;
3299;SDS011;1662;49.310;8.134;2023-03-23T12:17:23;1.80;;;1.70;;
3299;SDS011;1662;49.310;8.134;2023-03-23T12:25:35;2.23;;;2.13;;
3299;SDS011;1662;49.310;8.134;2023-03-23T12:28:14;1.70;;;1.60;;
3299;SDS011;1662;49.310;8.134;2023-03-23T12:36:30;1.63;;;1.53;;
3299;SDS011;1662;49.310;8.134;2023-03-23T12:44:50;1.67;;;1.20;;
3299;SDS011;1662;49.310;8.134;2023-03-23T12:55:36;1.60;;;1.50;;
3299;SDS011;1662;49.310;8.134;2023-03-23T12:58:11;1.83;;;1.73;;
3299;SDS011;1662;49.310;8.134;2023-03-23T13:01:26;2.13;;;1.53;;
3299;SDS011;1662;49.310;8.134;2023-03-23T13:03:42;2.10;;;1.70;;
3299;SDS011;1662;49.310;8.134;2023-03-23T13:08:45;3.03;;;2.83;;
3299;SDS011;1662;49.310;8.134;2023-03-23T13:11:18;2.13;;;2.03;;
3299;SDS011;1662;49.310;8.134;2023-03-23T13:13:53;1.77;;;1.63;;
3299;SDS011;1662;49.310;8.134;2023-03-23T13:22:17;2.40;;;2.20;;
3299;SDS011;1662;49.310;8.134;2023-03-23T13:24:27;2.53;;;2.43;;
3299;SDS011;1662;49.310;8.134;2023-03-23T13:26:56;1.97;;;1.87;;
3299;SDS011;1662;49.310;8.134;2023-03-23T13:29:23;2.23;;;2.13;;
3299;SDS011;1662;49.310;8.134;2023-03-23T13:31:52;1.83;;;1.77;;
3299;SDS011;1662;49.310;8.134;2023-03-23T13:34:35;2.00;;;1.90;;
3299;SDS011;1662;49.310;8.134;2023-03-23T13:39:56;2.70;;;2.50;;
3299;SDS011;1662;49.310;8.134;2023-03-23T13:42:48;2.20;;;2.00;;
3299;SDS011;1662;49.310;8.134;2023-03-23T13:45:20;5.03;;;2.17;;
3299;SDS011;1662;49.310;8.134;2023-03-23T13:50:44;1.70;;;1.70;;
3299;SDS011;1662;49.310;8.134;2023-03-23T13:53:21;1.77;;;1.63;;
3299;SDS011;1662;49.310;8.134;2023-03-23T13:56:13;2.30;;;2.10;;
3299;SDS011;1662;49.310;8.134;2023-03-23T13:59:07;1.80;;;1.80;;
3299;SDS011;1662;49.310;8.134;2023-03-23T14:01:37;2.03;;;1.97;;
3299;SDS011;1662;49.310;8.134;2023-03-23T14:04:16;1.90;;;1.80;;
3299;SDS011;1662;49.310;8.134;2023-03-23T14:06:44;3.83;;;1.70;;
3299;SDS011;1662;49.310;8.134;2023-03-23T14:11:55;2.00;;;1.90;;
3299;SDS011;1662;49.310;8.134;2023-03-23T14:14:39;1.70;;;1.60;;
3299;SDS011;1662;49.310;8.134;2023-03-23T14:19:46;1.90;;;1.80;;
3299;SDS011;1662;49.310;8.134;2023-03-23T14:22:18;2.20;;;2.10;;
3299;SDS011;1662;49.310;8.134;2023-03-23T14:24:47;1.90;;;1.80;;
3299;SDS011;1662;49.310;8.134;2023-03-23T14:27:20;1.90;;;1.90;;
3299;SDS011;1662;49.310;8.134;2023-03-23T14:29:57;1.80;;;1.70;;
3299;SDS011;1662;49.310;8.134;2023-03-23T14:32:24;2.17;;;2.07;;
3299;SDS011;1662;49.310;8.134;2023-03-23T14:34:52;3.73;;;2.23;;
3299;SDS011;1662;49.310;8.134;2023-03-23T14:37:18;2.10;;;2.00;;
3299;SDS011;1662;49.310;8.134;2023-03-23T14:39:47;2.20;;;2.10;;
3299;SDS011;1662;49.310;8.134;2023-03-23T14:42:16;2.10;;;2.00;;
3299;SDS011;1662;49.310;8.134;2023-03-23T14:44:48;2.37;;;2.27;;
3299;SDS011;1662;49.310;8.134;2023-03-23T14:47:19;2.20;;;2.00;;
3299;SDS011;1662;49.310;8.134;2023-03-23T14:49:52;2.10;;;2.00;;
3299;SDS011;1662;49.310;8.134;2023-03-23T14:52:21;2.00;;;1.90;;
3299;SDS011;1662;49.310;8.134;2023-03-23T14:54:48;2.40;;;2.10;;
3299;SDS011;1662;49.310;8.134;2023-03-23T14:59:49;1.80;;;1.70;;
3299;SDS011;1662;49.310;8.134;2023-03-23T15:02:28;2.13;;;2.03;;
3299;SDS011;1662;49.310;8.134;2023-03-23T15:08:02;14.53;;;10.03;;
3299;SDS011;1662;49.310;8.134;2023-03-23T15:10:30;21.77;;;13.93;;
3299;SDS011;1662;49.310;8.134;2023-03-23T15:12:56;13.70;;;9.23;;
3299;SDS011;1662;49.310;8.134;2023-03-23T15:15:29;5.80;;;5.30;;
3299;SDS011;1662;49.310;8.134;2023-03-23T15:17:59;2.50;;;2.40;;
3299;SDS011;1662;49.310;8.134;2023-03-23T15:20:28;2.90;;;2.70;;
3299;SDS011;1662;49.310;8.134;2023-03-23T15:23:15;5.03;;;2.90;;
3299;SDS011;1662;49.310;8.134;2023-03-23T15:25:47;2.83;;;2.73;;
3299;SDS011;1662;49.310;8.134;2023-03-23T15:28:21;2.50;;;2.40;;
3299;SDS011;1662;49.310;8.134;2023-03-23T15:30:59;3.03;;;2.83;;
3299;SDS011;1662;49.310;8.134;2023-03-23T15:33:26;3.17;;;2.90;;
3299;SDS011;1662;49.310;8.134;2023-03-23T15:36:05;3.17;;;2.40;;
3299;SDS011;1662;49.310;8.134;2023-03-23T15:38:42;4.37;;;4.17;;
3299;SDS011;1662;49.310;8.134;2023-03-23T15:41:20;3.13;;;3.03;;
3299;SDS011;1662;49.310;8.134;2023-03-23T15:43:55;3.20;;;3.00;;
3299;SDS011;1662;49.310;8.134;2023-03-23T15:46:27;3.10;;;2.90;;
3299;SDS011;1662;49.310;8.134;2023-03-23T15:51:26;3.00;;;2.80;;
3299;SDS011;1662;49.310;8.134;2023-03-23T15:53:54;3.20;;;3.10;;
3299;SDS011;1662;49.310;8.134;2023-03-23T15:56:21;3.20;;;2.90;;
3299;SDS011;1662;49.310;8.134;2023-03-23T15:58:47;3.03;;;2.73;;
3299;SDS011;1662;49.310;8.134;2023-03-23T16:01:14;2.83;;;2.63;;
3299;SDS011;1662;49.310;8.134;2023-03-23T16:03:47;3.33;;;3.07;;
3299;SDS011;1662;49.310;8.134;2023-03-23T16:06:18;2.70;;;2.60;;
3299;SDS011;1662;49.310;8.134;2023-03-23T16:08:45;3.20;;;3.00;;
3299;SDS011;1662;49.310;8.134;2023-03-23T16:11:12;3.73;;;3.43;;
3299;SDS011;1662;49.310;8.134;2023-03-23T16:13:39;3.53;;;3.33;;
3299;SDS011;1662;49.310;8.134;2023-03-23T16:16:05;3.50;;;3.20;;
3299;SDS011;1662;49.310;8.134;2023-03-23T16:18:42;2.73;;;2.63;;
3299;SDS011;1662;49.310;8.134;2023-03-23T16:21:08;3.53;;;3.23;;
3299;SDS011;1662;49.310;8.134;2023-03-23T16:23:34;3.27;;;3.07;;
3299;SDS011;1662;49.310;8.134;2023-03-23T16:26:00;4.30;;;3.87;;
3299;SDS011;1662;49.310;8.134;2023-03-23T16:28:25;3.40;;;3.20;;
3299;SDS011;1662;49.310;8.134;2023-03-23T16:30:51;3.60;;;3.40;;
3299;SDS011;1662;49.310;8.134;2023-03-23T16:33:17;4.10;;;3.70;;
3299;SDS011;1662;49.310;8.134;2023-03-23T16:35:42;2.77;;;2.57;;
3299;SDS011;1662;49.310;8.134;2023-03-23T16:38:12;3.60;;;3.27;;
3299;SDS011;1662;49.310;8.134;2023-03-23T16:40:40;4.30;;;4.00;;
3299;SDS011;1662;49.310;8.134;2023-03-23T16:43:07;3.40;;;3.30;;
3299;SDS011;1662;49.310;8.134;2023-03-23T16:45:33;5.63;;;3.60;;
3299;SDS011;1662;49.310;8.134;2023-03-23T16:48:02;4.20;;;3.80;;
3299;SDS011;1662;49.310;8.134;2023-03-23T16:50:29;3.77;;;3.27;;
3299;SDS011;1662;49.310;8.134;2023-03-23T16:52:55;3.43;;;3.13;;
3299;SDS011;1662;49.310;8.134;2023-03-23T16:55:21;3.50;;;3.20;;
3299;SDS011;1662;49.310;8.134;2023-03-23T16:57:48;3.50;;;3.20;;
3299;SDS011;1662;49.310;8.134;2023-03-23T17:00:14;3.37;;;3.17;;
3299;SDS011;1662;49.310;8.134;2023-03-23T17:02:44;4.03;;;3.13;;
3299;SDS011;1662;49.310;8.134;2023-03-23T17:05:11;3.47;;;3.17;;
3299;SDS011;1662;49.310;8.134;2023-03-23T17:07:44;3.10;;;2.77;;
3299;SDS011;1662;49.310;8.134;2023-03-23T17:10:12;5.00;;;3.40;;
3299;SDS011;1662;49.310;8.134;2023-03-23T17:12:43;3.60;;;3.30;;
3299;SDS011;1662;49.310;8.134;2023-03-23T17:15:09;5.77;;;3.40;;
3299;SDS011;1662;49.310;8.134;2023-03-23T17:17:35;3.53;;;3.43;;
3299;SDS011;1662;49.310;8.134;2023-03-23T17:20:01;3.30;;;3.00;;
3299;SDS011;1662;49.310;8.134;2023-03-23T17:22:27;4.03;;;3.60;;
3299;SDS011;1662;49.310;8.134;2023-03-23T17:24:53;3.50;;;3.17;;
3299;SDS011;1662;49.310;8.134;2023-03-23T17:27:21;3.83;;;3.63;;
3299;SDS011;1662;49.310;8.134;2023-03-23T17:29:47;3.20;;;3.10;;
3299;SDS011;1662;49.310;8.134;2023-03-23T17:32:15;3.70;;;3.50;;
3299;SDS011;1662;49.310;8.134;2023-03-23T17:34:41;3.63;;;3.33;;